sensor_id;sensor_type;location;lat;lon;timestamp;P1;durP1;ratioP1;P2;durP2;ratioP2
68870;SDS011;55906;52.278;6.808;2023-12-20T00:00:34;7.63;;;4.57;;
68870;SDS011;55906;52.278;6.808;2023-12-20T00:03:02;11.35;;;5.15;;
68870;SDS011;55906;52.278;6.808;2023-12-20T00:05:30;10.30;;;6.18;;
68870;SDS011;55906;52.278;6.808;2023-12-20T00:07:58;11.00;;;5.45;;
68870;SDS011;55906;52.278;6.808;2023-12-20T00:10:26;11.07;;;5.93;;
68870;SDS011;55906;52.278;6.808;2023-12-20T00:12:54;10.13;;;4.97;;
68870;SDS011;55906;52.278;6.808;2023-12-20T00:15:21;7.65;;;4.80;;
68870;SDS011;55906;52.278;6.808;2023-12-20T00:17:48;10.07;;;4.70;;
68870;SDS011;55906;52.278;6.808;2023-12-20T00:20:14;7.55;;;4.72;;
68870;SDS011;55906;52.278;6.808;2023-12-20T00:22:42;9.30;;;4.95;;
68870;SDS011;55906;52.278;6.808;2023-12-20T00:25:09;8.38;;;5.15;;
68870;SDS011;55906;52.278;6.808;2023-12-20T00:27:36;11.93;;;4.97;;
68870;SDS011;55906;52.278;6.808;2023-12-20T00:30:04;8.57;;;4.47;;
68870;SDS011;55906;52.278;6.808;2023-12-20T00:32:32;9.98;;;4.25;;
68870;SDS011;55906;52.278;6.808;2023-12-20T00:35:00;13.40;;;5.35;;
68870;SDS011;55906;52.278;6.808;2023-12-20T00:37:27;10.15;;;5.05;;
68870;SDS011;55906;52.278;6.808;2023-12-20T00:39:54;8.82;;;5.32;;
68870;SDS011;55906;52.278;6.808;2023-12-20T00:42:21;9.93;;;5.05;;
68870;SDS011;55906;52.278;6.808;2023-12-20T00:44:48;13.90;;;5.13;;
68870;SDS011;55906;52.278;6.808;2023-12-20T00:47:17;9.35;;;5.18;;
68870;SDS011;55906;52.278;6.808;2023-12-20T00:49:45;12.77;;;5.43;;
68870;SDS011;55906;52.278;6.808;2023-12-20T00:52:12;11.77;;;5.35;;
68870;SDS011;55906;52.278;6.808;2023-12-20T00:54:39;15.23;;;6.47;;
68870;SDS011;55906;52.278;6.808;2023-12-20T00:57:06;13.95;;;5.78;;
68870;SDS011;55906;52.278;6.808;2023-12-20T00:59:33;13.45;;;6.25;;
68870;SDS011;55906;52.278;6.808;2023-12-20T01:02:00;13.17;;;5.33;;
68870;SDS011;55906;52.278;6.808;2023-12-20T01:04:29;15.05;;;6.15;;
68870;SDS011;55906;52.278;6.808;2023-12-20T01:06:55;13.88;;;5.93;;
68870;SDS011;55906;52.278;6.808;2023-12-20T01:09:22;14.25;;;6.05;;
68870;SDS011;55906;52.278;6.808;2023-12-20T01:11:51;14.82;;;6.10;;
68870;SDS011;55906;52.278;6.808;2023-12-20T01:14:19;12.57;;;6.28;;
68870;SDS011;55906;52.278;6.808;2023-12-20T01:16:46;10.13;;;6.47;;
68870;SDS011;55906;52.278;6.808;2023-12-20T01:19:13;16.00;;;6.37;;
68870;SDS011;55906;52.278;6.808;2023-12-20T01:21:41;13.48;;;5.88;;
68870;SDS011;55906;52.278;6.808;2023-12-20T01:24:08;13.40;;;6.75;;
68870;SDS011;55906;52.278;6.808;2023-12-20T01:26:36;14.38;;;6.70;;
68870;SDS011;55906;52.278;6.808;2023-12-20T01:29:03;17.20;;;6.63;;
68870;SDS011;55906;52.278;6.808;2023-12-20T01:31:30;20.50;;;7.47;;
68870;SDS011;55906;52.278;6.808;2023-12-20T01:33:57;11.98;;;6.05;;
68870;SDS011;55906;52.278;6.808;2023-12-20T01:39:47;9.68;;;6.40;;
68870;SDS011;55906;52.278;6.808;2023-12-20T01:42:14;14.52;;;7.65;;
68870;SDS011;55906;52.278;6.808;2023-12-20T01:44:41;13.57;;;6.50;;
68870;SDS011;55906;52.278;6.808;2023-12-20T01:47:08;15.93;;;6.88;;
68870;SDS011;55906;52.278;6.808;2023-12-20T01:49:35;16.27;;;6.15;;
68870;SDS011;55906;52.278;6.808;2023-12-20T01:52:02;12.27;;;5.63;;
68870;SDS011;55906;52.278;6.808;2023-12-20T01:54:29;12.70;;;6.90;;
68870;SDS011;55906;52.278;6.808;2023-12-20T01:56:59;17.23;;;6.43;;
68870;SDS011;55906;52.278;6.808;2023-12-20T01:59:26;13.60;;;5.53;;
68870;SDS011;55906;52.278;6.808;2023-12-20T02:01:55;13.27;;;5.40;;
68870;SDS011;55906;52.278;6.808;2023-12-20T02:04:22;14.40;;;5.10;;
68870;SDS011;55906;52.278;6.808;2023-12-20T02:06:49;14.23;;;5.70;;
68870;SDS011;55906;52.278;6.808;2023-12-20T02:09:19;10.90;;;4.80;;
68870;SDS011;55906;52.278;6.808;2023-12-20T02:11:45;13.38;;;5.22;;
68870;SDS011;55906;52.278;6.808;2023-12-20T02:14:14;20.35;;;5.32;;
68870;SDS011;55906;52.278;6.808;2023-12-20T02:16:41;14.52;;;5.25;;
68870;SDS011;55906;52.278;6.808;2023-12-20T02:19:09;11.57;;;5.25;;
68870;SDS011;55906;52.278;6.808;2023-12-20T02:21:41;18.20;;;5.50;;
68870;SDS011;55906;52.278;6.808;2023-12-20T02:24:08;12.63;;;4.60;;
68870;SDS011;55906;52.278;6.808;2023-12-20T02:26:34;10.17;;;4.57;;
68870;SDS011;55906;52.278;6.808;2023-12-20T02:29:01;12.93;;;4.50;;
68870;SDS011;55906;52.278;6.808;2023-12-20T02:31:28;13.98;;;4.63;;
68870;SDS011;55906;52.278;6.808;2023-12-20T02:33:55;13.63;;;5.17;;
68870;SDS011;55906;52.278;6.808;2023-12-20T02:36:22;14.25;;;5.43;;
68870;SDS011;55906;52.278;6.808;2023-12-20T02:38:50;13.15;;;5.25;;
68870;SDS011;55906;52.278;6.808;2023-12-20T02:41:17;15.65;;;5.22;;
68870;SDS011;55906;52.278;6.808;2023-12-20T02:43:44;10.75;;;5.07;;
68870;SDS011;55906;52.278;6.808;2023-12-20T02:46:11;12.15;;;4.53;;
68870;SDS011;55906;52.278;6.808;2023-12-20T02:48:40;14.25;;;4.72;;
68870;SDS011;55906;52.278;6.808;2023-12-20T02:51:06;10.60;;;4.03;;
68870;SDS011;55906;52.278;6.808;2023-12-20T02:53:33;10.63;;;4.30;;
68870;SDS011;55906;52.278;6.808;2023-12-20T02:56:01;13.05;;;4.85;;
68870;SDS011;55906;52.278;6.808;2023-12-20T02:58:28;12.60;;;4.50;;
68870;SDS011;55906;52.278;6.808;2023-12-20T03:00:55;9.88;;;3.83;;
68870;SDS011;55906;52.278;6.808;2023-12-20T03:03:21;17.55;;;5.00;;
68870;SDS011;55906;52.278;6.808;2023-12-20T03:05:48;16.42;;;4.80;;
68870;SDS011;55906;52.278;6.808;2023-12-20T03:08:15;11.75;;;4.50;;
68870;SDS011;55906;52.278;6.808;2023-12-20T03:10:42;15.68;;;4.68;;
68870;SDS011;55906;52.278;6.808;2023-12-20T03:13:10;18.25;;;4.68;;
68870;SDS011;55906;52.278;6.808;2023-12-20T03:15:37;11.50;;;4.30;;
68870;SDS011;55906;52.278;6.808;2023-12-20T03:18:03;17.70;;;4.82;;
68870;SDS011;55906;52.278;6.808;2023-12-20T03:20:30;15.82;;;4.88;;
68870;SDS011;55906;52.278;6.808;2023-12-20T03:22:59;11.57;;;4.47;;
68870;SDS011;55906;52.278;6.808;2023-12-20T03:25:26;14.50;;;4.70;;
68870;SDS011;55906;52.278;6.808;2023-12-20T03:27:52;17.88;;;5.43;;
68870;SDS011;55906;52.278;6.808;2023-12-20T03:30:21;12.20;;;5.13;;
68870;SDS011;55906;52.278;6.808;2023-12-20T03:32:47;11.57;;;5.20;;
68870;SDS011;55906;52.278;6.808;2023-12-20T03:35:14;17.58;;;5.32;;
68870;SDS011;55906;52.278;6.808;2023-12-20T03:37:41;15.10;;;4.47;;
68870;SDS011;55906;52.278;6.808;2023-12-20T03:40:08;20.80;;;5.23;;
68870;SDS011;55906;52.278;6.808;2023-12-20T03:42:36;16.65;;;4.97;;
68870;SDS011;55906;52.278;6.808;2023-12-20T03:45:02;12.40;;;4.57;;
68870;SDS011;55906;52.278;6.808;2023-12-20T03:47:31;12.83;;;4.40;;
68870;SDS011;55906;52.278;6.808;2023-12-20T03:49:58;15.30;;;4.53;;
68870;SDS011;55906;52.278;6.808;2023-12-20T03:52:24;12.15;;;5.07;;
68870;SDS011;55906;52.278;6.808;2023-12-20T03:54:51;14.50;;;5.43;;
68870;SDS011;55906;52.278;6.808;2023-12-20T03:57:18;13.73;;;5.57;;
68870;SDS011;55906;52.278;6.808;2023-12-20T03:59:45;13.30;;;5.78;;
68870;SDS011;55906;52.278;6.808;2023-12-20T04:02:12;19.23;;;4.93;;
68870;SDS011;55906;52.278;6.808;2023-12-20T04:04:40;14.40;;;4.50;;
68870;SDS011;55906;52.278;6.808;2023-12-20T04:07:07;13.48;;;4.90;;
68870;SDS011;55906;52.278;6.808;2023-12-20T04:09:34;14.05;;;4.82;;
68870;SDS011;55906;52.278;6.808;2023-12-20T04:12:00;15.73;;;4.97;;
68870;SDS011;55906;52.278;6.808;2023-12-20T04:14:27;12.98;;;4.55;;
68870;SDS011;55906;52.278;6.808;2023-12-20T04:16:54;16.50;;;5.30;;
68870;SDS011;55906;52.278;6.808;2023-12-20T04:19:21;16.67;;;4.70;;
68870;SDS011;55906;52.278;6.808;2023-12-20T04:21:49;17.77;;;5.10;;
68870;SDS011;55906;52.278;6.808;2023-12-20T04:24:16;16.50;;;4.80;;
68870;SDS011;55906;52.278;6.808;2023-12-20T04:26:42;24.50;;;5.05;;
68870;SDS011;55906;52.278;6.808;2023-12-20T04:29:09;17.80;;;5.07;;
68870;SDS011;55906;52.278;6.808;2023-12-20T04:31:36;12.07;;;4.90;;
68870;SDS011;55906;52.278;6.808;2023-12-20T04:34:03;13.10;;;5.97;;
68870;SDS011;55906;52.278;6.808;2023-12-20T04:36:29;17.13;;;5.77;;
68870;SDS011;55906;52.278;6.808;2023-12-20T04:38:58;14.90;;;4.78;;
68870;SDS011;55906;52.278;6.808;2023-12-20T04:41:26;17.98;;;5.28;;
68870;SDS011;55906;52.278;6.808;2023-12-20T04:43:53;12.48;;;4.95;;
68870;SDS011;55906;52.278;6.808;2023-12-20T04:46:20;15.05;;;5.63;;
68870;SDS011;55906;52.278;6.808;2023-12-20T04:48:47;18.70;;;5.57;;
68870;SDS011;55906;52.278;6.808;2023-12-20T04:51:13;16.77;;;5.20;;
68870;SDS011;55906;52.278;6.808;2023-12-20T04:53:40;20.17;;;5.27;;
68870;SDS011;55906;52.278;6.808;2023-12-20T04:56:09;16.17;;;5.38;;
68870;SDS011;55906;52.278;6.808;2023-12-20T04:58:36;12.50;;;4.90;;
68870;SDS011;55906;52.278;6.808;2023-12-20T05:01:03;14.43;;;5.23;;
68870;SDS011;55906;52.278;6.808;2023-12-20T05:03:32;17.92;;;4.70;;
68870;SDS011;55906;52.278;6.808;2023-12-20T05:05:58;16.92;;;5.22;;
68870;SDS011;55906;52.278;6.808;2023-12-20T05:08:25;21.13;;;6.45;;
68870;SDS011;55906;52.278;6.808;2023-12-20T05:10:52;16.63;;;4.20;;
68870;SDS011;55906;52.278;6.808;2023-12-20T05:13:22;21.25;;;5.00;;
68870;SDS011;55906;52.278;6.808;2023-12-20T05:15:49;14.10;;;5.03;;
68870;SDS011;55906;52.278;6.808;2023-12-20T05:18:16;13.37;;;4.97;;
68870;SDS011;55906;52.278;6.808;2023-12-20T05:20:42;18.33;;;5.68;;
68870;SDS011;55906;52.278;6.808;2023-12-20T05:23:09;15.00;;;4.50;;
68870;SDS011;55906;52.278;6.808;2023-12-20T05:25:36;18.40;;;4.85;;
68870;SDS011;55906;52.278;6.808;2023-12-20T05:28:03;15.38;;;5.10;;
68870;SDS011;55906;52.278;6.808;2023-12-20T05:30:32;18.58;;;4.65;;
68870;SDS011;55906;52.278;6.808;2023-12-20T05:32:59;14.00;;;4.93;;
68870;SDS011;55906;52.278;6.808;2023-12-20T05:35:26;18.70;;;5.80;;
68870;SDS011;55906;52.278;6.808;2023-12-20T05:37:52;19.45;;;6.13;;
68870;SDS011;55906;52.278;6.808;2023-12-20T05:40:19;21.20;;;5.70;;
68870;SDS011;55906;52.278;6.808;2023-12-20T05:42:46;16.40;;;5.82;;
68870;SDS011;55906;52.278;6.808;2023-12-20T05:45:14;20.10;;;5.13;;
68870;SDS011;55906;52.278;6.808;2023-12-20T05:47:42;13.18;;;4.53;;
68870;SDS011;55906;52.278;6.808;2023-12-20T05:50:09;15.75;;;5.43;;
68870;SDS011;55906;52.278;6.808;2023-12-20T05:52:36;21.85;;;6.00;;
68870;SDS011;55906;52.278;6.808;2023-12-20T05:55:03;19.65;;;5.10;;
68870;SDS011;55906;52.278;6.808;2023-12-20T05:57:30;16.02;;;5.63;;
68870;SDS011;55906;52.278;6.808;2023-12-20T05:59:57;15.75;;;4.88;;
68870;SDS011;55906;52.278;6.808;2023-12-20T06:02:24;19.97;;;5.50;;
68870;SDS011;55906;52.278;6.808;2023-12-20T06:04:52;15.82;;;5.43;;
68870;SDS011;55906;52.278;6.808;2023-12-20T06:07:19;15.50;;;5.05;;
68870;SDS011;55906;52.278;6.808;2023-12-20T06:09:48;17.27;;;5.88;;
68870;SDS011;55906;52.278;6.808;2023-12-20T06:12:14;16.33;;;5.43;;
68870;SDS011;55906;52.278;6.808;2023-12-20T06:14:41;18.98;;;5.68;;
68870;SDS011;55906;52.278;6.808;2023-12-20T06:17:08;13.98;;;5.22;;
68870;SDS011;55906;52.278;6.808;2023-12-20T06:19:35;17.20;;;4.80;;
68870;SDS011;55906;52.278;6.808;2023-12-20T06:22:03;15.77;;;5.10;;
68870;SDS011;55906;52.278;6.808;2023-12-20T06:24:30;22.05;;;5.65;;
68870;SDS011;55906;52.278;6.808;2023-12-20T06:26:59;18.10;;;5.50;;
68870;SDS011;55906;52.278;6.808;2023-12-20T06:29:26;12.50;;;4.88;;
68870;SDS011;55906;52.278;6.808;2023-12-20T06:31:52;13.47;;;4.60;;
68870;SDS011;55906;52.278;6.808;2023-12-20T06:34:19;16.85;;;4.78;;
68870;SDS011;55906;52.278;6.808;2023-12-20T06:36:46;15.88;;;4.68;;
68870;SDS011;55906;52.278;6.808;2023-12-20T06:39:14;17.90;;;4.90;;
68870;SDS011;55906;52.278;6.808;2023-12-20T06:41:41;16.58;;;5.57;;
68870;SDS011;55906;52.278;6.808;2023-12-20T06:44:08;20.95;;;6.05;;
68870;SDS011;55906;52.278;6.808;2023-12-20T06:46:35;15.45;;;5.40;;
68870;SDS011;55906;52.278;6.808;2023-12-20T06:49:02;18.73;;;5.30;;
68870;SDS011;55906;52.278;6.808;2023-12-20T06:51:28;18.60;;;5.68;;
68870;SDS011;55906;52.278;6.808;2023-12-20T06:53:56;19.10;;;5.47;;
68870;SDS011;55906;52.278;6.808;2023-12-20T06:56:24;18.20;;;7.13;;
68870;SDS011;55906;52.278;6.808;2023-12-20T06:58:51;21.05;;;5.28;;
68870;SDS011;55906;52.278;6.808;2023-12-20T07:01:18;20.08;;;5.82;;
68870;SDS011;55906;52.278;6.808;2023-12-20T07:03:45;22.92;;;6.88;;
68870;SDS011;55906;52.278;6.808;2023-12-20T07:06:12;17.63;;;5.10;;
68870;SDS011;55906;52.278;6.808;2023-12-20T07:08:40;17.50;;;5.70;;
68870;SDS011;55906;52.278;6.808;2023-12-20T07:11:07;17.08;;;5.75;;
68870;SDS011;55906;52.278;6.808;2023-12-20T07:13:35;17.87;;;5.70;;
68870;SDS011;55906;52.278;6.808;2023-12-20T07:16:02;16.98;;;5.40;;
68870;SDS011;55906;52.278;6.808;2023-12-20T07:18:29;13.77;;;6.30;;
68870;SDS011;55906;52.278;6.808;2023-12-20T07:20:56;19.23;;;6.28;;
68870;SDS011;55906;52.278;6.808;2023-12-20T07:23:23;19.43;;;5.80;;
68870;SDS011;55906;52.278;6.808;2023-12-20T07:25:51;22.85;;;7.60;;
68870;SDS011;55906;52.278;6.808;2023-12-20T07:28:18;17.10;;;5.38;;
68870;SDS011;55906;52.278;6.808;2023-12-20T07:30:46;25.43;;;6.40;;
68870;SDS011;55906;52.278;6.808;2023-12-20T07:33:13;19.27;;;6.95;;
68870;SDS011;55906;52.278;6.808;2023-12-20T07:35:40;18.17;;;6.22;;
68870;SDS011;55906;52.278;6.808;2023-12-20T07:38:06;15.10;;;5.18;;
68870;SDS011;55906;52.278;6.808;2023-12-20T07:40:33;15.33;;;4.97;;
68870;SDS011;55906;52.278;6.808;2023-12-20T07:43:00;17.73;;;5.03;;
68870;SDS011;55906;52.278;6.808;2023-12-20T07:45:27;17.30;;;4.78;;
68870;SDS011;55906;52.278;6.808;2023-12-20T07:47:55;18.08;;;5.72;;
68870;SDS011;55906;52.278;6.808;2023-12-20T07:50:22;15.93;;;5.35;;
68870;SDS011;55906;52.278;6.808;2023-12-20T07:52:49;16.23;;;5.45;;
68870;SDS011;55906;52.278;6.808;2023-12-20T07:55:15;15.15;;;5.95;;
68870;SDS011;55906;52.278;6.808;2023-12-20T07:57:42;23.70;;;5.60;;
68870;SDS011;55906;52.278;6.808;2023-12-20T08:00:09;17.50;;;4.80;;
68870;SDS011;55906;52.278;6.808;2023-12-20T08:02:37;18.15;;;5.38;;
68870;SDS011;55906;52.278;6.808;2023-12-20T08:05:05;16.92;;;5.35;;
68870;SDS011;55906;52.278;6.808;2023-12-20T08:07:32;17.37;;;5.00;;
68870;SDS011;55906;52.278;6.808;2023-12-20T08:09:59;14.77;;;4.88;;
68870;SDS011;55906;52.278;6.808;2023-12-20T08:12:26;13.68;;;4.95;;
68870;SDS011;55906;52.278;6.808;2023-12-20T08:14:54;17.57;;;5.70;;
68870;SDS011;55906;52.278;6.808;2023-12-20T08:17:22;18.77;;;5.35;;
68870;SDS011;55906;52.278;6.808;2023-12-20T08:19:49;14.88;;;5.22;;
68870;SDS011;55906;52.278;6.808;2023-12-20T08:22:17;14.80;;;4.93;;
68870;SDS011;55906;52.278;6.808;2023-12-20T08:24:44;15.30;;;5.37;;
68870;SDS011;55906;52.278;6.808;2023-12-20T08:27:10;15.95;;;5.45;;
68870;SDS011;55906;52.278;6.808;2023-12-20T08:29:37;17.20;;;5.05;;
68870;SDS011;55906;52.278;6.808;2023-12-20T08:32:04;15.63;;;5.28;;
68870;SDS011;55906;52.278;6.808;2023-12-20T08:34:31;21.80;;;5.50;;
68870;SDS011;55906;52.278;6.808;2023-12-20T08:36:58;15.52;;;4.93;;
68870;SDS011;55906;52.278;6.808;2023-12-20T08:39:26;16.65;;;5.00;;
68870;SDS011;55906;52.278;6.808;2023-12-20T08:41:55;18.25;;;5.00;;
68870;SDS011;55906;52.278;6.808;2023-12-20T08:44:22;15.27;;;5.50;;
68870;SDS011;55906;52.278;6.808;2023-12-20T08:46:49;20.13;;;5.18;;
68870;SDS011;55906;52.278;6.808;2023-12-20T08:49:16;14.35;;;6.15;;
68870;SDS011;55906;52.278;6.808;2023-12-20T08:51:43;15.40;;;5.80;;
68870;SDS011;55906;52.278;6.808;2023-12-20T08:54:10;18.87;;;5.73;;
68870;SDS011;55906;52.278;6.808;2023-12-20T08:56:39;23.63;;;5.75;;
68870;SDS011;55906;52.278;6.808;2023-12-20T08:59:06;18.80;;;5.53;;
68870;SDS011;55906;52.278;6.808;2023-12-20T09:01:33;21.00;;;5.35;;
68870;SDS011;55906;52.278;6.808;2023-12-20T09:04:00;18.60;;;5.53;;
68870;SDS011;55906;52.278;6.808;2023-12-20T09:06:27;17.75;;;5.65;;
68870;SDS011;55906;52.278;6.808;2023-12-20T09:08:53;14.57;;;5.82;;
68870;SDS011;55906;52.278;6.808;2023-12-20T09:11:20;19.02;;;5.78;;
68870;SDS011;55906;52.278;6.808;2023-12-20T09:13:48;20.00;;;5.50;;
68870;SDS011;55906;52.278;6.808;2023-12-20T09:16:15;16.38;;;5.20;;
68870;SDS011;55906;52.278;6.808;2023-12-20T09:18:42;21.05;;;7.22;;
68870;SDS011;55906;52.278;6.808;2023-12-20T09:21:09;19.65;;;6.57;;
68870;SDS011;55906;52.278;6.808;2023-12-20T09:23:36;15.30;;;6.40;;
68870;SDS011;55906;52.278;6.808;2023-12-20T09:26:03;16.98;;;5.88;;
68870;SDS011;55906;52.278;6.808;2023-12-20T09:28:29;18.35;;;6.63;;
68870;SDS011;55906;52.278;6.808;2023-12-20T09:31:02;21.03;;;6.53;;
68870;SDS011;55906;52.278;6.808;2023-12-20T09:33:30;21.10;;;6.65;;
68870;SDS011;55906;52.278;6.808;2023-12-20T09:35:57;17.02;;;5.65;;
68870;SDS011;55906;52.278;6.808;2023-12-20T09:38:24;18.08;;;5.45;;
68870;SDS011;55906;52.278;6.808;2023-12-20T09:40:50;15.70;;;7.00;;
68870;SDS011;55906;52.278;6.808;2023-12-20T09:43:19;17.35;;;6.00;;
68870;SDS011;55906;52.278;6.808;2023-12-20T09:45:47;17.65;;;6.32;;
68870;SDS011;55906;52.278;6.808;2023-12-20T09:48:16;19.88;;;6.90;;
68870;SDS011;55906;52.278;6.808;2023-12-20T09:50:45;22.00;;;7.37;;
68870;SDS011;55906;52.278;6.808;2023-12-20T09:53:14;18.40;;;6.93;;
68870;SDS011;55906;52.278;6.808;2023-12-20T09:55:42;22.60;;;6.72;;
68870;SDS011;55906;52.278;6.808;2023-12-20T09:58:09;19.20;;;6.70;;
68870;SDS011;55906;52.278;6.808;2023-12-20T10:00:35;20.33;;;7.63;;
68870;SDS011;55906;52.278;6.808;2023-12-20T10:03:02;22.85;;;7.72;;
68870;SDS011;55906;52.278;6.808;2023-12-20T10:05:34;19.52;;;6.78;;
68870;SDS011;55906;52.278;6.808;2023-12-20T10:08:01;22.13;;;5.90;;
68870;SDS011;55906;52.278;6.808;2023-12-20T10:10:28;18.00;;;5.80;;
68870;SDS011;55906;52.278;6.808;2023-12-20T10:13:02;20.52;;;5.88;;
68870;SDS011;55906;52.278;6.808;2023-12-20T10:15:29;20.27;;;6.70;;
68870;SDS011;55906;52.278;6.808;2023-12-20T10:17:57;18.15;;;6.07;;
68870;SDS011;55906;52.278;6.808;2023-12-20T10:20:24;17.38;;;6.75;;
68870;SDS011;55906;52.278;6.808;2023-12-20T10:22:52;19.50;;;6.82;;
68870;SDS011;55906;52.278;6.808;2023-12-20T10:25:20;15.90;;;5.72;;
68870;SDS011;55906;52.278;6.808;2023-12-20T10:27:47;17.30;;;6.60;;
68870;SDS011;55906;52.278;6.808;2023-12-20T10:30:15;20.35;;;5.88;;
68870;SDS011;55906;52.278;6.808;2023-12-20T10:32:42;18.15;;;6.25;;
68870;SDS011;55906;52.278;6.808;2023-12-20T10:35:09;30.60;;;9.68;;
68870;SDS011;55906;52.278;6.808;2023-12-20T10:37:55;15.55;;;7.00;;
68870;SDS011;55906;52.278;6.808;2023-12-20T10:40:24;19.27;;;6.03;;
68870;SDS011;55906;52.278;6.808;2023-12-20T10:42:55;21.90;;;6.07;;
68870;SDS011;55906;52.278;6.808;2023-12-20T10:45:22;14.80;;;5.30;;
68870;SDS011;55906;52.278;6.808;2023-12-20T10:47:50;16.40;;;6.85;;
68870;SDS011;55906;52.278;6.808;2023-12-20T10:50:17;13.68;;;5.07;;
68870;SDS011;55906;52.278;6.808;2023-12-20T10:52:45;20.50;;;5.43;;
68870;SDS011;55906;52.278;6.808;2023-12-20T10:55:15;18.58;;;6.07;;
68870;SDS011;55906;52.278;6.808;2023-12-20T10:57:42;14.77;;;5.32;;
68870;SDS011;55906;52.278;6.808;2023-12-20T11:00:16;21.58;;;6.22;;
68870;SDS011;55906;52.278;6.808;2023-12-20T11:02:44;15.30;;;5.57;;
68870;SDS011;55906;52.278;6.808;2023-12-20T11:05:19;18.70;;;6.10;;
68870;SDS011;55906;52.278;6.808;2023-12-20T11:07:52;15.50;;;5.68;;
68870;SDS011;55906;52.278;6.808;2023-12-20T11:10:31;16.25;;;5.55;;
68870;SDS011;55906;52.278;6.808;2023-12-20T11:13:08;15.20;;;5.32;;
68870;SDS011;55906;52.278;6.808;2023-12-20T11:15:39;17.97;;;6.07;;
68870;SDS011;55906;52.278;6.808;2023-12-20T11:18:07;16.80;;;5.78;;
68870;SDS011;55906;52.278;6.808;2023-12-20T11:20:37;18.50;;;5.90;;
68870;SDS011;55906;52.278;6.808;2023-12-20T11:23:05;21.70;;;5.28;;
68870;SDS011;55906;52.278;6.808;2023-12-20T11:25:47;18.73;;;6.00;;
68870;SDS011;55906;52.278;6.808;2023-12-20T11:28:15;23.93;;;6.77;;
68870;SDS011;55906;52.278;6.808;2023-12-20T11:30:47;16.10;;;5.60;;
68870;SDS011;55906;52.278;6.808;2023-12-20T11:33:14;14.13;;;6.10;;
68870;SDS011;55906;52.278;6.808;2023-12-20T11:35:41;20.17;;;6.13;;
68870;SDS011;55906;52.278;6.808;2023-12-20T11:38:09;17.33;;;5.63;;
68870;SDS011;55906;52.278;6.808;2023-12-20T11:40:37;16.57;;;5.47;;
68870;SDS011;55906;52.278;6.808;2023-12-20T11:43:05;22.40;;;6.28;;
68870;SDS011;55906;52.278;6.808;2023-12-20T11:45:32;18.65;;;6.22;;
68870;SDS011;55906;52.278;6.808;2023-12-20T11:48:00;15.70;;;6.57;;
68870;SDS011;55906;52.278;6.808;2023-12-20T11:50:28;15.43;;;5.87;;
68870;SDS011;55906;52.278;6.808;2023-12-20T11:52:58;19.85;;;6.03;;
68870;SDS011;55906;52.278;6.808;2023-12-20T11:55:25;9.93;;;3.97;;
68870;SDS011;55906;52.278;6.808;2023-12-20T11:57:52;6.75;;;3.03;;
68870;SDS011;55906;52.278;6.808;2023-12-20T12:00:20;10.47;;;4.33;;
68870;SDS011;55906;52.278;6.808;2023-12-20T12:02:56;7.55;;;3.63;;
68870;SDS011;55906;52.278;6.808;2023-12-20T12:05:24;5.13;;;3.05;;
68870;SDS011;55906;52.278;6.808;2023-12-20T12:07:51;8.73;;;3.22;;
68870;SDS011;55906;52.278;6.808;2023-12-20T12:10:18;8.43;;;3.57;;
68870;SDS011;55906;52.278;6.808;2023-12-20T12:12:45;7.20;;;3.10;;
68870;SDS011;55906;52.278;6.808;2023-12-20T12:15:12;9.38;;;3.63;;
68870;SDS011;55906;52.278;6.808;2023-12-20T12:17:42;12.00;;;3.30;;
68870;SDS011;55906;52.278;6.808;2023-12-20T12:20:09;7.57;;;4.00;;
68870;SDS011;55906;52.278;6.808;2023-12-20T12:22:36;6.70;;;3.60;;
68870;SDS011;55906;52.278;6.808;2023-12-20T12:25:09;7.20;;;3.50;;
68870;SDS011;55906;52.278;6.808;2023-12-20T12:27:39;7.97;;;3.97;;
68870;SDS011;55906;52.278;6.808;2023-12-20T12:30:06;9.10;;;4.03;;
68870;SDS011;55906;52.278;6.808;2023-12-20T12:32:34;6.88;;;3.47;;
68870;SDS011;55906;52.278;6.808;2023-12-20T12:35:03;7.82;;;4.00;;
68870;SDS011;55906;52.278;6.808;2023-12-20T12:37:31;7.07;;;3.25;;
68870;SDS011;55906;52.278;6.808;2023-12-20T12:40:00;12.13;;;4.53;;
68870;SDS011;55906;52.278;6.808;2023-12-20T12:42:27;8.73;;;4.20;;
68870;SDS011;55906;52.278;6.808;2023-12-20T12:44:54;7.22;;;3.45;;
68870;SDS011;55906;52.278;6.808;2023-12-20T12:47:21;8.15;;;3.88;;
68870;SDS011;55906;52.278;6.808;2023-12-20T12:49:49;9.53;;;3.60;;
68870;SDS011;55906;52.278;6.808;2023-12-20T12:52:19;8.30;;;4.20;;
68870;SDS011;55906;52.278;6.808;2023-12-20T12:54:46;6.15;;;3.47;;
68870;SDS011;55906;52.278;6.808;2023-12-20T12:57:13;6.75;;;3.50;;
68870;SDS011;55906;52.278;6.808;2023-12-20T12:59:41;8.20;;;3.17;;
68870;SDS011;55906;52.278;6.808;2023-12-20T13:02:09;6.25;;;3.83;;
68870;SDS011;55906;52.278;6.808;2023-12-20T13:04:35;9.00;;;2.90;;
68870;SDS011;55906;52.278;6.808;2023-12-20T13:07:02;9.18;;;3.53;;
68870;SDS011;55906;52.278;6.808;2023-12-20T13:09:30;8.37;;;3.50;;
68870;SDS011;55906;52.278;6.808;2023-12-20T13:11:57;9.07;;;3.72;;
68870;SDS011;55906;52.278;6.808;2023-12-20T13:14:24;9.77;;;3.58;;
68870;SDS011;55906;52.278;6.808;2023-12-20T13:16:51;7.78;;;3.38;;
68870;SDS011;55906;52.278;6.808;2023-12-20T13:19:18;8.82;;;4.00;;
68870;SDS011;55906;52.278;6.808;2023-12-20T13:21:45;6.47;;;3.90;;
68870;SDS011;55906;52.278;6.808;2023-12-20T13:24:12;8.95;;;4.53;;
68870;SDS011;55906;52.278;6.808;2023-12-20T13:26:40;9.88;;;3.72;;
68870;SDS011;55906;52.278;6.808;2023-12-20T13:29:07;7.87;;;4.37;;
68870;SDS011;55906;52.278;6.808;2023-12-20T13:31:33;9.43;;;5.55;;
68870;SDS011;55906;52.278;6.808;2023-12-20T13:34:01;8.20;;;5.13;;
68870;SDS011;55906;52.278;6.808;2023-12-20T13:36:28;8.13;;;3.92;;
68870;SDS011;55906;52.278;6.808;2023-12-20T13:38:55;9.33;;;4.00;;
68870;SDS011;55906;52.278;6.808;2023-12-20T13:41:21;8.05;;;4.40;;
68870;SDS011;55906;52.278;6.808;2023-12-20T13:43:50;10.48;;;6.07;;
68870;SDS011;55906;52.278;6.808;2023-12-20T13:46:16;8.88;;;4.22;;
68870;SDS011;55906;52.278;6.808;2023-12-20T13:48:43;8.93;;;4.30;;
68870;SDS011;55906;52.278;6.808;2023-12-20T13:51:10;10.35;;;5.32;;
68870;SDS011;55906;52.278;6.808;2023-12-20T13:53:37;9.88;;;6.10;;
68870;SDS011;55906;52.278;6.808;2023-12-20T13:56:04;13.48;;;5.95;;
68870;SDS011;55906;52.278;6.808;2023-12-20T13:58:32;9.27;;;5.50;;
68870;SDS011;55906;52.278;6.808;2023-12-20T14:01:00;6.95;;;4.63;;
68870;SDS011;55906;52.278;6.808;2023-12-20T14:03:27;12.20;;;5.10;;
68870;SDS011;55906;52.278;6.808;2023-12-20T14:05:53;10.70;;;5.68;;
68870;SDS011;55906;52.278;6.808;2023-12-20T14:08:21;8.13;;;4.47;;
68870;SDS011;55906;52.278;6.808;2023-12-20T14:10:47;9.38;;;4.85;;
68870;SDS011;55906;52.278;6.808;2023-12-20T14:13:15;9.65;;;5.50;;
68870;SDS011;55906;52.278;6.808;2023-12-20T14:15:42;7.10;;;5.18;;
68870;SDS011;55906;52.278;6.808;2023-12-20T14:18:10;7.43;;;4.20;;
68870;SDS011;55906;52.278;6.808;2023-12-20T14:20:39;8.35;;;4.75;;
68870;SDS011;55906;52.278;6.808;2023-12-20T14:23:07;7.43;;;4.60;;
68870;SDS011;55906;52.278;6.808;2023-12-20T14:25:36;6.82;;;3.83;;
68870;SDS011;55906;52.278;6.808;2023-12-20T14:28:03;6.35;;;4.15;;
68870;SDS011;55906;52.278;6.808;2023-12-20T14:30:30;9.25;;;5.03;;
68870;SDS011;55906;52.278;6.808;2023-12-20T14:32:57;15.15;;;8.55;;
68870;SDS011;55906;52.278;6.808;2023-12-20T14:35:26;14.70;;;7.50;;
68870;SDS011;55906;52.278;6.808;2023-12-20T14:37:52;17.05;;;6.18;;
68870;SDS011;55906;52.278;6.808;2023-12-20T14:40:19;16.33;;;6.17;;